Main page
METAR-TAF:

METAR-TAF

Airports :

Nadi, Fiji

Nadi International Airport

latitude: 17-45S, longitude: 177-27E, elevation: 13 m

Current weather observation

The report was made 18 minutes ago, at 02:00 UTC
Wind 8 kt from the West
Temperature 29°C
Humidity 58%
Pressure 1013 hPa
Visibility 10 km or more
Few clouds at a height of 3000 ft

METAR: NFFN 270200Z 26008KT 9999 FEW030 29/20 Q1013 NOSIG

Time: 14:18 (02:18 UTC)

Forecast

The report was made 3 hours and 9 minutes ago, at 23:09 UTC
Forecast valid from 27 at 00 UTC to 27 at 24 UTC
Wind 10 kt from the West
Visibility 10 km or more
Few clouds at a height of 2500 ft
Becoming
from 27 at 04 UTC to 27 at 06 UTC
Wind 7 kt from the East
Becoming
from 27 at 22 UTC to 27 at 24 UTC
Wind 10 kt from the West

TAF: NFFN 262309Z 2700/2724 28010KT 9999 FEW025 BECMG 2704/2706 08007KT BECMG 2722/2724 28010KT

Weather observations and forecasts of more than 4000 airports (METAR and TAF reports).

The available stations are represented by yellow and red dots on the map.

Hover mouse over dot to see the name of the station.

Then click to see weather observations and forecasts.

To change the map : click on the green buttons with a black cross to zoom in, on the green button with a dash to zoom out, or on the green arrows for adjacent maps.


METAR-TAF: